sensor_id;sensor_type;location;lat;lon;timestamp;P1;durP1;ratioP1;P2;durP2;ratioP2
15629;SDS011;7914;50.842;0.166;2023-03-15T00:00:38;2.75;;;1.05;;
15629;SDS011;7914;50.842;0.166;2023-03-15T00:03:03;5.85;;;1.40;;
15629;SDS011;7914;50.842;0.166;2023-03-15T00:05:29;6.07;;;1.02;;
15629;SDS011;7914;50.842;0.166;2023-03-15T00:07:56;4.53;;;0.80;;
15629;SDS011;7914;50.842;0.166;2023-03-15T00:10:22;3.55;;;0.82;;
15629;SDS011;7914;50.842;0.166;2023-03-15T00:12:48;5.10;;;1.08;;
15629;SDS011;7914;50.842;0.166;2023-03-15T00:15:14;5.18;;;1.00;;
15629;SDS011;7914;50.842;0.166;2023-03-15T00:17:40;6.35;;;1.42;;
15629;SDS011;7914;50.842;0.166;2023-03-15T00:20:06;2.85;;;0.80;;
15629;SDS011;7914;50.842;0.166;2023-03-15T00:33:36;4.47;;;1.35;;
15629;SDS011;7914;50.842;0.166;2023-03-15T00:36:05;4.93;;;1.00;;
15629;SDS011;7914;50.842;0.166;2023-03-15T00:38:33;4.38;;;1.25;;
15629;SDS011;7914;50.842;0.166;2023-03-15T00:41:03;3.50;;;1.10;;
15629;SDS011;7914;50.842;0.166;2023-03-15T00:43:34;1.55;;;0.77;;
15629;SDS011;7914;50.842;0.166;2023-03-15T00:46:00;2.95;;;0.98;;
15629;SDS011;7914;50.842;0.166;2023-03-15T00:48:26;3.05;;;0.90;;
15629;SDS011;7914;50.842;0.166;2023-03-15T00:53:35;6.13;;;1.42;;
15629;SDS011;7914;50.842;0.166;2023-03-15T00:56:06;3.88;;;0.90;;
15629;SDS011;7914;50.842;0.166;2023-03-15T00:58:34;2.78;;;0.85;;
15629;SDS011;7914;50.842;0.166;2023-03-15T01:01:03;5.53;;;1.73;;
15629;SDS011;7914;50.842;0.166;2023-03-15T01:03:33;1.70;;;0.82;;
15629;SDS011;7914;50.842;0.166;2023-03-15T01:06:03;6.47;;;1.10;;
15629;SDS011;7914;50.842;0.166;2023-03-15T01:08:30;4.97;;;0.82;;
15629;SDS011;7914;50.842;0.166;2023-03-15T01:10:55;3.03;;;0.68;;
15629;SDS011;7914;50.842;0.166;2023-03-15T01:13:26;5.22;;;0.73;;
15629;SDS011;7914;50.842;0.166;2023-03-15T01:15:52;3.65;;;0.93;;
15629;SDS011;7914;50.842;0.166;2023-03-15T01:18:18;7.28;;;1.50;;
15629;SDS011;7914;50.842;0.166;2023-03-15T01:20:43;4.18;;;1.20;;
15629;SDS011;7914;50.842;0.166;2023-03-15T01:23:09;5.55;;;1.10;;
15629;SDS011;7914;50.842;0.166;2023-03-15T01:25:35;3.60;;;1.30;;
15629;SDS011;7914;50.842;0.166;2023-03-15T01:28:00;2.67;;;0.95;;
15629;SDS011;7914;50.842;0.166;2023-03-15T01:30:26;8.00;;;1.05;;
15629;SDS011;7914;50.842;0.166;2023-03-15T01:32:52;1.88;;;1.00;;
15629;SDS011;7914;50.842;0.166;2023-03-15T01:35:17;3.67;;;1.30;;
15629;SDS011;7914;50.842;0.166;2023-03-15T01:37:43;2.42;;;0.90;;
15629;SDS011;7914;50.842;0.166;2023-03-15T01:40:12;3.08;;;1.05;;
15629;SDS011;7914;50.842;0.166;2023-03-15T01:48:28;6.20;;;0.90;;
15629;SDS011;7914;50.842;0.166;2023-03-15T01:51:16;3.13;;;0.90;;
15629;SDS011;7914;50.842;0.166;2023-03-15T01:56:30;5.45;;;1.02;;
15629;SDS011;7914;50.842;0.166;2023-03-15T01:58:58;4.93;;;1.13;;
15629;SDS011;7914;50.842;0.166;2023-03-15T02:01:27;3.70;;;1.10;;
15629;SDS011;7914;50.842;0.166;2023-03-15T02:03:59;2.13;;;0.88;;
15629;SDS011;7914;50.842;0.166;2023-03-15T02:06:29;2.65;;;0.80;;
15629;SDS011;7914;50.842;0.166;2023-03-15T02:09:00;3.65;;;1.08;;
15629;SDS011;7914;50.842;0.166;2023-03-15T02:11:29;4.88;;;0.95;;
15629;SDS011;7914;50.842;0.166;2023-03-15T02:13:55;3.92;;;0.90;;
15629;SDS011;7914;50.842;0.166;2023-03-15T02:16:23;3.33;;;0.90;;
15629;SDS011;7914;50.842;0.166;2023-03-15T02:18:49;5.32;;;1.25;;
15629;SDS011;7914;50.842;0.166;2023-03-15T02:26:47;4.88;;;0.80;;
15629;SDS011;7914;50.842;0.166;2023-03-15T02:29:17;3.65;;;1.10;;
15629;SDS011;7914;50.842;0.166;2023-03-15T02:31:43;2.10;;;0.93;;
15629;SDS011;7914;50.842;0.166;2023-03-15T02:34:09;4.78;;;1.50;;
15629;SDS011;7914;50.842;0.166;2023-03-15T02:36:35;4.32;;;1.58;;
15629;SDS011;7914;50.842;0.166;2023-03-15T02:39:01;4.50;;;1.13;;
15629;SDS011;7914;50.842;0.166;2023-03-15T02:41:39;7.18;;;1.40;;
15629;SDS011;7914;50.842;0.166;2023-03-15T02:44:10;4.00;;;1.20;;
15629;SDS011;7914;50.842;0.166;2023-03-15T02:46:40;5.43;;;1.13;;
15629;SDS011;7914;50.842;0.166;2023-03-15T02:49:08;5.22;;;0.85;;
15629;SDS011;7914;50.842;0.166;2023-03-15T02:51:35;5.60;;;1.10;;
15629;SDS011;7914;50.842;0.166;2023-03-15T02:54:00;2.83;;;0.70;;
15629;SDS011;7914;50.842;0.166;2023-03-15T02:56:26;2.47;;;0.73;;
15629;SDS011;7914;50.842;0.166;2023-03-15T02:58:52;4.25;;;1.30;;
15629;SDS011;7914;50.842;0.166;2023-03-15T03:01:17;4.50;;;1.00;;
15629;SDS011;7914;50.842;0.166;2023-03-15T03:03:44;2.17;;;0.73;;
15629;SDS011;7914;50.842;0.166;2023-03-15T03:06:11;3.08;;;1.15;;
15629;SDS011;7914;50.842;0.166;2023-03-15T03:08:38;3.08;;;1.20;;
15629;SDS011;7914;50.842;0.166;2023-03-15T03:11:03;4.22;;;1.23;;
15629;SDS011;7914;50.842;0.166;2023-03-15T03:13:29;4.32;;;1.10;;
15629;SDS011;7914;50.842;0.166;2023-03-15T03:15:55;4.93;;;1.60;;
15629;SDS011;7914;50.842;0.166;2023-03-15T03:18:24;5.03;;;1.30;;
15629;SDS011;7914;50.842;0.166;2023-03-15T03:20:53;4.35;;;1.00;;
15629;SDS011;7914;50.842;0.166;2023-03-15T03:23:21;5.32;;;1.00;;
15629;SDS011;7914;50.842;0.166;2023-03-15T03:25:50;4.35;;;1.48;;
15629;SDS011;7914;50.842;0.166;2023-03-15T03:28:20;3.80;;;0.98;;
15629;SDS011;7914;50.842;0.166;2023-03-15T03:30:50;2.70;;;1.00;;
15629;SDS011;7914;50.842;0.166;2023-03-15T03:33:16;3.05;;;0.80;;
15629;SDS011;7914;50.842;0.166;2023-03-15T22:13:27;7.47;;;1.63;;
15629;SDS011;7914;50.842;0.166;2023-03-15T22:15:54;7.30;;;2.05;;
15629;SDS011;7914;50.842;0.166;2023-03-15T22:18:20;6.70;;;1.73;;
15629;SDS011;7914;50.842;0.166;2023-03-15T22:20:46;7.57;;;1.80;;
15629;SDS011;7914;50.842;0.166;2023-03-15T22:23:13;5.45;;;1.60;;
15629;SDS011;7914;50.842;0.166;2023-03-15T22:25:39;7.88;;;1.83;;
15629;SDS011;7914;50.842;0.166;2023-03-15T22:28:05;10.70;;;1.70;;
15629;SDS011;7914;50.842;0.166;2023-03-15T22:30:31;5.38;;;1.65;;
15629;SDS011;7914;50.842;0.166;2023-03-15T22:32:57;8.88;;;3.05;;
15629;SDS011;7914;50.842;0.166;2023-03-15T22:35:23;5.13;;;1.80;;
15629;SDS011;7914;50.842;0.166;2023-03-15T22:37:49;7.47;;;1.83;;
15629;SDS011;7914;50.842;0.166;2023-03-15T22:40:21;7.18;;;1.83;;
15629;SDS011;7914;50.842;0.166;2023-03-15T22:42:48;11.48;;;2.20;;
15629;SDS011;7914;50.842;0.166;2023-03-15T22:45:15;5.03;;;1.80;;
15629;SDS011;7914;50.842;0.166;2023-03-15T22:47:41;6.07;;;1.80;;
15629;SDS011;7914;50.842;0.166;2023-03-15T22:50:11;10.60;;;2.25;;
15629;SDS011;7914;50.842;0.166;2023-03-15T22:52:38;6.30;;;1.80;;
15629;SDS011;7914;50.842;0.166;2023-03-15T22:55:05;10.88;;;2.40;;
15629;SDS011;7914;50.842;0.166;2023-03-15T22:57:32;7.43;;;1.77;;
15629;SDS011;7914;50.842;0.166;2023-03-15T22:59:58;11.02;;;2.33;;
15629;SDS011;7914;50.842;0.166;2023-03-15T23:02:24;7.07;;;2.03;;
15629;SDS011;7914;50.842;0.166;2023-03-15T23:04:50;9.63;;;2.13;;
15629;SDS011;7914;50.842;0.166;2023-03-15T23:07:16;6.03;;;1.80;;
15629;SDS011;7914;50.842;0.166;2023-03-15T23:09:42;9.80;;;2.17;;
15629;SDS011;7914;50.842;0.166;2023-03-15T23:12:08;9.30;;;2.70;;
15629;SDS011;7914;50.842;0.166;2023-03-15T23:14:36;7.28;;;1.83;;
15629;SDS011;7914;50.842;0.166;2023-03-15T23:17:01;9.63;;;2.30;;
15629;SDS011;7914;50.842;0.166;2023-03-15T23:19:29;8.75;;;1.80;;
15629;SDS011;7914;50.842;0.166;2023-03-15T23:21:58;10.00;;;2.30;;
15629;SDS011;7914;50.842;0.166;2023-03-15T23:24:25;4.88;;;1.73;;
15629;SDS011;7914;50.842;0.166;2023-03-15T23:26:52;12.07;;;2.58;;
15629;SDS011;7914;50.842;0.166;2023-03-15T23:29:20;7.28;;;1.75;;
15629;SDS011;7914;50.842;0.166;2023-03-15T23:31:47;9.95;;;2.97;;
15629;SDS011;7914;50.842;0.166;2023-03-15T23:34:13;8.88;;;3.45;;
15629;SDS011;7914;50.842;0.166;2023-03-15T23:36:40;10.40;;;2.38;;
15629;SDS011;7914;50.842;0.166;2023-03-15T23:39:05;11.40;;;2.70;;
15629;SDS011;7914;50.842;0.166;2023-03-15T23:41:31;5.47;;;1.63;;
15629;SDS011;7914;50.842;0.166;2023-03-15T23:44:00;12.45;;;2.30;;
15629;SDS011;7914;50.842;0.166;2023-03-15T23:46:26;8.15;;;2.33;;
15629;SDS011;7914;50.842;0.166;2023-03-15T23:48:52;8.32;;;2.88;;
15629;SDS011;7914;50.842;0.166;2023-03-15T23:51:18;9.63;;;2.10;;
15629;SDS011;7914;50.842;0.166;2023-03-15T23:53:46;9.63;;;2.20;;
15629;SDS011;7914;50.842;0.166;2023-03-15T23:56:12;12.68;;;2.78;;
15629;SDS011;7914;50.842;0.166;2023-03-15T23:58:38;9.00;;;2.83;;
